Hannover Airport EDDV

Flugplatz Daten

Name: Hannover Airport

Ident: EDDV

Lat: 52,46110153

Long: 9,685079575

Platzhöhe: 183 ft

IataCode: HAJ

City: Hannover

Metar

2022/08/15 18:50
EDDV 151850Z AUTO 15003KT CAVOK 21/20 Q1005 NOSIG

Taf

2022/08/15 18:27
TAF EDDV 151700Z 1518/1618 24004KT CAVOK
Gewünschte Webcam nicht vorhanden? Dann fügen Sie eine hinzu. Sie wird dann so schnell wie möglich freigeschaltet
Url: Title: